KMSN/MSN METAR and TAF weather

Enter ICAO airport designator
Station Type Date Time Source
KMSN METAR 2022/06/29 00:53 UTC NOAA

KMSN 290053Z 21008KT 180V240 10SM FEW150 SCT250 26/11 A3005 RMK AO2 SLP169 T02610106


Station Type Date Time Source
KMSN Decoded METAR 2022/06/29 00:53 UTC NOAA

MADISON DANE COUNTY RGNL, WI, United States (KMSN) 43-08N 89-21W 261M
Jun 28, 2022 - 08:53 PM EDT / 2022.06.29 0053 UTC
Wind: from the SSW (210 degrees) at 9 MPH (8 KT) (direction variable):0
Visibility: 10 mile(s):0
Sky conditions: partly cloudy
Temperature: 79.0 F (26.1 C)
Dew Point: 51.1 F (10.6 C)
Relative Humidity: 37%
Pressure (altimeter): 30.05 in. Hg (1017 hPa)
ob: KMSN 290053Z 21008KT 180V240 10SM FEW150 SCT250 26/11 A3005 RMK AO2 SLP169 T02610106
cycle: 1

Station Type Date Time Source
KMSN TAF 2022/06/28 20:16 UTC NOAA

TAF
AMD KMSN 282014Z 2820/2918 VRB06G16KT P6SM BKN090 BKN250
FM290100 21007KT P6SM SHRA VCTS BKN110CB
FM290500 VRB04KT P6SM BKN080
FM291000 00000KT 6SM BR FEW170

Example: see airport list